首页
METAR-TAF:

METAR-TAF

机场 :

马德普拉塔, 阿根廷

纬度: 37-56S, 经度: 057-35W, 海拔: 18米

当前天气观测

该预报发布于1小时和7分钟前的14:00 UTC
风速11节,风向北转西北
温度 27°C
湿度 54%
气压 1013 hPa
能见度10公里或以上
1500米以下无云,无积雨云

METAR: SAZM 201400Z 34011KT CAVOK 27/17 Q1013

时间: 12:07 (15:07 UTC)

预报

该预报发布于4小时和7分钟前的11:00 UTC
预报有效从20日的 12点(UTC)到 21日的 12点(UTC)
风速10节,风向北转西北
能见度10公里或以上
1500米以下无云,无积雨云
成为
从 20日的 13点(UTC)到 20日的 15点(UTC)
风速15节,风向东北,有时为25节阵风
散云层高于3000英尺
成为
从 20日的 22点(UTC)到 20日的 24点(UTC)
风速15节,风向
成为
从 21日的 04点(UTC)到 21日的 06点(UTC)
风速10节,风向北转西北
多云层高于3000英尺
多云层高于10000英尺

TAF: SAZM 201100Z 2012/2112 34010KT CAVOK TX27/2019Z TN18/2108Z BECMG 2013/2015 05015G25KT SCT030 BECMG 2022/2024 36015KT BECMG 2104/2106 34010KT BKN030 BKN100

超过4000个机场的气象观测和天气预报(METAR&TAF报告)。

可查询的气象台以黄色和红色小点在地图上表示。

将鼠标移到小点上方,可查看气象台名称。

然后点击查看天气观测和预报。

如需切换地图:点击带黑十字的绿色按钮放大地图;点击带横线的绿色按钮缩小地图;或者点击绿色箭头查看邻近地区的地图。


METAR-TAF: